sensor_id;sensor_type;location;lat;lon;timestamp;temperature;humidity
21244;DHT22;10780;50.942;4.028;2022-09-09T00:00:32;15.30;99.90
21244;DHT22;10780;50.942;4.028;2022-09-09T00:03:16;15.30;99.90
21244;DHT22;10780;50.942;4.028;2022-09-09T00:06:30;15.20;99.90
21244;DHT22;10780;50.942;4.028;2022-09-09T00:09:15;15.30;99.90
21244;DHT22;10780;50.942;4.028;2022-09-09T00:12:17;15.20;99.90
21244;DHT22;10780;50.942;4.028;2022-09-09T00:15:07;15.20;99.90
21244;DHT22;10780;50.942;4.028;2022-09-09T00:17:39;15.20;99.90
21244;DHT22;10780;50.942;4.028;2022-09-09T00:22:57;15.20;99.90
21244;DHT22;10780;50.942;4.028;2022-09-09T00:25:49;15.20;99.90
21244;DHT22;10780;50.942;4.028;2022-09-09T00:28:24;15.20;99.90
21244;DHT22;10780;50.942;4.028;2022-09-09T00:30:50;15.20;99.90
21244;DHT22;10780;50.942;4.028;2022-09-09T00:33:20;15.20;99.90
21244;DHT22;10780;50.942;4.028;2022-09-09T00:35:59;15.20;99.90
21244;DHT22;10780;50.942;4.028;2022-09-09T00:38:34;15.20;99.90
21244;DHT22;10780;50.942;4.028;2022-09-09T00:41:22;15.20;99.90
21244;DHT22;10780;50.942;4.028;2022-09-09T00:46:53;15.40;99.90
21244;DHT22;10780;50.942;4.028;2022-09-09T00:49:35;15.40;99.90
21244;DHT22;10780;50.942;4.028;2022-09-09T00:54:55;15.50;99.90
21244;DHT22;10780;50.942;4.028;2022-09-09T00:57:30;15.50;99.90
21244;DHT22;10780;50.942;4.028;2022-09-09T01:00:16;15.50;99.90
21244;DHT22;10780;50.942;4.028;2022-09-09T01:02:52;15.40;99.90
21244;DHT22;10780;50.942;4.028;2022-09-09T01:07:52;15.30;99.90
21244;DHT22;10780;50.942;4.028;2022-09-09T01:10:55;15.30;99.90
21244;DHT22;10780;50.942;4.028;2022-09-09T01:13:33;15.30;99.90
21244;DHT22;10780;50.942;4.028;2022-09-09T01:16:03;15.30;99.90
21244;DHT22;10780;50.942;4.028;2022-09-09T01:18:44;15.40;99.90
21244;DHT22;10780;50.942;4.028;2022-09-09T01:21:44;15.30;99.90
21244;DHT22;10780;50.942;4.028;2022-09-09T01:24:42;15.30;99.90
21244;DHT22;10780;50.942;4.028;2022-09-09T01:27:13;15.30;99.90
21244;DHT22;10780;50.942;4.028;2022-09-09T01:29:40;15.10;99.90
21244;DHT22;10780;50.942;4.028;2022-09-09T01:37:57;15.00;99.90
21244;DHT22;10780;50.942;4.028;2022-09-09T01:40:24;15.00;99.90
21244;DHT22;10780;50.942;4.028;2022-09-09T01:42:50;15.00;99.90
21244;DHT22;10780;50.942;4.028;2022-09-09T01:45:16;15.10;99.90
21244;DHT22;10780;50.942;4.028;2022-09-09T01:47:41;15.10;99.90
21244;DHT22;10780;50.942;4.028;2022-09-09T01:50:10;15.10;99.90
21244;DHT22;10780;50.942;4.028;2022-09-09T01:52:37;15.20;99.90
21244;DHT22;10780;50.942;4.028;2022-09-09T01:55:04;15.20;99.90
21244;DHT22;10780;50.942;4.028;2022-09-09T01:57:46;15.20;99.90
21244;DHT22;10780;50.942;4.028;2022-09-09T02:00:14;15.10;99.90
21244;DHT22;10780;50.942;4.028;2022-09-09T02:05:37;15.20;99.90
21244;DHT22;10780;50.942;4.028;2022-09-09T02:08:17;15.20;99.90
21244;DHT22;10780;50.942;4.028;2022-09-09T02:11:14;15.10;99.90
21244;DHT22;10780;50.942;4.028;2022-09-09T02:13:40;15.10;99.90
21244;DHT22;10780;50.942;4.028;2022-09-09T02:19:00;15.10;99.90
21244;DHT22;10780;50.942;4.028;2022-09-09T02:21:30;15.20;99.90
21244;DHT22;10780;50.942;4.028;2022-09-09T02:23:58;15.20;99.90
21244;DHT22;10780;50.942;4.028;2022-09-09T02:26:26;15.20;99.90
21244;DHT22;10780;50.942;4.028;2022-09-09T02:28:55;15.20;99.90
21244;DHT22;10780;50.942;4.028;2022-09-09T02:31:22;15.20;99.90
21244;DHT22;10780;50.942;4.028;2022-09-09T02:33:57;15.20;99.90
21244;DHT22;10780;50.942;4.028;2022-09-09T02:36:26;15.20;99.90
21244;DHT22;10780;50.942;4.028;2022-09-09T02:38:54;15.30;99.90
21244;DHT22;10780;50.942;4.028;2022-09-09T02:41:32;15.30;99.90
21244;DHT22;10780;50.942;4.028;2022-09-09T02:43:59;15.30;99.90
21244;DHT22;10780;50.942;4.028;2022-09-09T02:46:27;15.40;99.90
21244;DHT22;10780;50.942;4.028;2022-09-09T02:49:04;15.40;99.90
21244;DHT22;10780;50.942;4.028;2022-09-09T02:52:02;15.40;99.90
21244;DHT22;10780;50.942;4.028;2022-09-09T02:54:35;15.30;99.90
21244;DHT22;10780;50.942;4.028;2022-09-09T02:57:17;15.30;99.90
21244;DHT22;10780;50.942;4.028;2022-09-09T02:59:45;15.30;99.90
21244;DHT22;10780;50.942;4.028;2022-09-09T03:02:11;15.30;99.90
21244;DHT22;10780;50.942;4.028;2022-09-09T03:04:39;15.20;99.90
21244;DHT22;10780;50.942;4.028;2022-09-09T03:07:04;15.20;99.90
21244;DHT22;10780;50.942;4.028;2022-09-09T03:09:30;15.20;99.90
21244;DHT22;10780;50.942;4.028;2022-09-09T03:11:58;15.20;99.90
21244;DHT22;10780;50.942;4.028;2022-09-09T03:14:24;15.10;99.90
21244;DHT22;10780;50.942;4.028;2022-09-09T03:16:53;15.20;99.90
21244;DHT22;10780;50.942;4.028;2022-09-09T03:19:19;15.10;99.90
21244;DHT22;10780;50.942;4.028;2022-09-09T03:21:46;15.10;99.90
21244;DHT22;10780;50.942;4.028;2022-09-09T03:24:12;15.10;99.90
21244;DHT22;10780;50.942;4.028;2022-09-09T03:26:38;15.20;99.90
21244;DHT22;10780;50.942;4.028;2022-09-09T03:29:05;15.20;99.90
21244;DHT22;10780;50.942;4.028;2022-09-09T03:31:34;15.20;99.90
21244;DHT22;10780;50.942;4.028;2022-09-09T03:34:01;15.20;99.90
21244;DHT22;10780;50.942;4.028;2022-09-09T03:36:27;15.30;99.90
21244;DHT22;10780;50.942;4.028;2022-09-09T03:38:53;15.20;99.90
21244;DHT22;10780;50.942;4.028;2022-09-09T03:41:21;15.30;99.90
21244;DHT22;10780;50.942;4.028;2022-09-09T03:43:52;15.40;99.90
21244;DHT22;10780;50.942;4.028;2022-09-09T03:46:19;15.50;99.90
21244;DHT22;10780;50.942;4.028;2022-09-09T03:48:45;15.60;99.90
21244;DHT22;10780;50.942;4.028;2022-09-09T03:51:10;15.60;99.90
21244;DHT22;10780;50.942;4.028;2022-09-09T03:53:36;15.70;99.90
21244;DHT22;10780;50.942;4.028;2022-09-09T03:56:04;15.70;99.90
21244;DHT22;10780;50.942;4.028;2022-09-09T03:58:33;15.70;99.90
21244;DHT22;10780;50.942;4.028;2022-09-09T04:01:11;15.70;99.90
21244;DHT22;10780;50.942;4.028;2022-09-09T04:03:39;15.70;99.90
21244;DHT22;10780;50.942;4.028;2022-09-09T04:06:06;15.70;99.90
21244;DHT22;10780;50.942;4.028;2022-09-09T04:08:33;15.70;99.90
21244;DHT22;10780;50.942;4.028;2022-09-09T04:11:01;15.70;99.90
21244;DHT22;10780;50.942;4.028;2022-09-09T04:13:30;15.70;99.90
21244;DHT22;10780;50.942;4.028;2022-09-09T04:15:58;15.70;99.90
21244;DHT22;10780;50.942;4.028;2022-09-09T04:18:24;15.70;99.90
21244;DHT22;10780;50.942;4.028;2022-09-09T04:20:52;15.70;99.90
21244;DHT22;10780;50.942;4.028;2022-09-09T04:23:18;15.70;99.90
21244;DHT22;10780;50.942;4.028;2022-09-09T04:25:46;15.70;99.90
21244;DHT22;10780;50.942;4.028;2022-09-09T04:28:16;15.70;99.90
21244;DHT22;10780;50.942;4.028;2022-09-09T04:30:42;15.60;99.90
21244;DHT22;10780;50.942;4.028;2022-09-09T04:33:08;15.50;99.90
21244;DHT22;10780;50.942;4.028;2022-09-09T04:35:36;15.60;99.90
21244;DHT22;10780;50.942;4.028;2022-09-09T04:38:03;15.60;99.90
21244;DHT22;10780;50.942;4.028;2022-09-09T04:40:30;15.70;99.90
21244;DHT22;10780;50.942;4.028;2022-09-09T04:42:58;15.70;99.90
21244;DHT22;10780;50.942;4.028;2022-09-09T04:45:24;15.70;99.90
21244;DHT22;10780;50.942;4.028;2022-09-09T04:47:49;15.80;99.90
21244;DHT22;10780;50.942;4.028;2022-09-09T04:50:15;15.90;99.90
21244;DHT22;10780;50.942;4.028;2022-09-09T04:52:42;15.80;99.90
21244;DHT22;10780;50.942;4.028;2022-09-09T04:55:07;15.80;99.90
21244;DHT22;10780;50.942;4.028;2022-09-09T04:57:34;15.70;99.90
21244;DHT22;10780;50.942;4.028;2022-09-09T05:00:00;15.80;99.90
21244;DHT22;10780;50.942;4.028;2022-09-09T05:02:27;15.80;99.90
21244;DHT22;10780;50.942;4.028;2022-09-09T05:04:53;15.80;99.90
21244;DHT22;10780;50.942;4.028;2022-09-09T05:07:19;15.90;99.90
21244;DHT22;10780;50.942;4.028;2022-09-09T05:09:45;15.90;99.90
21244;DHT22;10780;50.942;4.028;2022-09-09T05:12:10;16.00;99.90
21244;DHT22;10780;50.942;4.028;2022-09-09T05:14:36;16.00;99.90
21244;DHT22;10780;50.942;4.028;2022-09-09T05:17:03;16.10;99.90
21244;DHT22;10780;50.942;4.028;2022-09-09T05:19:29;16.10;99.90
21244;DHT22;10780;50.942;4.028;2022-09-09T05:21:56;16.20;99.90
21244;DHT22;10780;50.942;4.028;2022-09-09T05:24:22;16.30;99.90
21244;DHT22;10780;50.942;4.028;2022-09-09T05:26:49;16.30;99.90
21244;DHT22;10780;50.942;4.028;2022-09-09T05:29:14;16.40;99.90
21244;DHT22;10780;50.942;4.028;2022-09-09T05:31:40;16.30;99.90
21244;DHT22;10780;50.942;4.028;2022-09-09T05:34:06;16.30;99.90
21244;DHT22;10780;50.942;4.028;2022-09-09T05:36:31;16.20;99.90
21244;DHT22;10780;50.942;4.028;2022-09-09T05:38:57;16.20;99.90
21244;DHT22;10780;50.942;4.028;2022-09-09T05:41:23;16.20;99.90
21244;DHT22;10780;50.942;4.028;2022-09-09T05:43:49;16.20;99.90
21244;DHT22;10780;50.942;4.028;2022-09-09T05:46:20;16.30;99.90
21244;DHT22;10780;50.942;4.028;2022-09-09T05:48:47;16.40;99.90
21244;DHT22;10780;50.942;4.028;2022-09-09T05:51:15;16.50;99.90
21244;DHT22;10780;50.942;4.028;2022-09-09T05:53:42;16.70;99.90
21244;DHT22;10780;50.942;4.028;2022-09-09T05:56:13;16.80;99.90
21244;DHT22;10780;50.942;4.028;2022-09-09T05:58:40;16.70;99.90
21244;DHT22;10780;50.942;4.028;2022-09-09T06:01:11;16.90;99.90
21244;DHT22;10780;50.942;4.028;2022-09-09T06:03:38;17.10;99.90
21244;DHT22;10780;50.942;4.028;2022-09-09T06:06:06;17.00;99.90
21244;DHT22;10780;50.942;4.028;2022-09-09T06:08:37;17.10;99.90
21244;DHT22;10780;50.942;4.028;2022-09-09T06:13:30;17.40;99.90
21244;DHT22;10780;50.942;4.028;2022-09-09T06:15:56;17.50;99.90
21244;DHT22;10780;50.942;4.028;2022-09-09T06:18:24;17.50;99.90
21244;DHT22;10780;50.942;4.028;2022-09-09T06:21:02;17.50;99.90
21244;DHT22;10780;50.942;4.028;2022-09-09T06:23:33;17.50;99.90
21244;DHT22;10780;50.942;4.028;2022-09-09T06:26:21;17.60;99.90
21244;DHT22;10780;50.942;4.028;2022-09-09T06:28:58;17.50;99.90
21244;DHT22;10780;50.942;4.028;2022-09-09T06:31:32;17.60;99.90
21244;DHT22;10780;50.942;4.028;2022-09-09T06:33:59;17.60;99.90
21244;DHT22;10780;50.942;4.028;2022-09-09T06:36:32;17.80;99.90
21244;DHT22;10780;50.942;4.028;2022-09-09T06:39:00;17.90;99.90
21244;DHT22;10780;50.942;4.028;2022-09-09T06:41:29;18.10;99.90
21244;DHT22;10780;50.942;4.028;2022-09-09T06:43:57;18.20;99.90
21244;DHT22;10780;50.942;4.028;2022-09-09T06:46:25;18.40;99.90
21244;DHT22;10780;50.942;4.028;2022-09-09T06:48:56;18.50;99.90
21244;DHT22;10780;50.942;4.028;2022-09-09T06:51:32;18.60;99.90
21244;DHT22;10780;50.942;4.028;2022-09-09T06:54:00;18.80;99.90
21244;DHT22;10780;50.942;4.028;2022-09-09T06:56:35;18.80;99.90
21244;DHT22;10780;50.942;4.028;2022-09-09T06:59:03;19.00;99.90
21244;DHT22;10780;50.942;4.028;2022-09-09T07:01:33;19.20;99.90
21244;DHT22;10780;50.942;4.028;2022-09-09T07:04:01;19.20;99.90
21244;DHT22;10780;50.942;4.028;2022-09-09T07:06:36;19.00;99.90
21244;DHT22;10780;50.942;4.028;2022-09-09T07:09:05;18.80;99.90
21244;DHT22;10780;50.942;4.028;2022-09-09T07:11:33;19.00;99.90
21244;DHT22;10780;50.942;4.028;2022-09-09T07:14:00;19.00;99.90
21244;DHT22;10780;50.942;4.028;2022-09-09T07:16:27;18.80;99.90
21244;DHT22;10780;50.942;4.028;2022-09-09T07:18:54;18.90;99.90
21244;DHT22;10780;50.942;4.028;2022-09-09T07:21:24;18.90;99.90
21244;DHT22;10780;50.942;4.028;2022-09-09T07:23:52;19.00;99.90
21244;DHT22;10780;50.942;4.028;2022-09-09T07:26:20;19.00;99.90
21244;DHT22;10780;50.942;4.028;2022-09-09T07:28:49;18.90;99.90
21244;DHT22;10780;50.942;4.028;2022-09-09T07:31:17;19.00;99.90
21244;DHT22;10780;50.942;4.028;2022-09-09T07:33:44;19.00;99.90
21244;DHT22;10780;50.942;4.028;2022-09-09T07:36:13;19.00;99.90
21244;DHT22;10780;50.942;4.028;2022-09-09T07:38:43;18.90;99.90
21244;DHT22;10780;50.942;4.028;2022-09-09T07:41:12;18.80;99.90
21244;DHT22;10780;50.942;4.028;2022-09-09T07:43:41;18.90;99.90
21244;DHT22;10780;50.942;4.028;2022-09-09T07:46:18;19.10;99.90
21244;DHT22;10780;50.942;4.028;2022-09-09T07:48:49;19.30;99.90
21244;DHT22;10780;50.942;4.028;2022-09-09T07:51:19;19.40;99.90
21244;DHT22;10780;50.942;4.028;2022-09-09T07:53:47;19.40;99.90
21244;DHT22;10780;50.942;4.028;2022-09-09T07:56:16;19.70;99.90
21244;DHT22;10780;50.942;4.028;2022-09-09T07:58:45;19.70;99.90
21244;DHT22;10780;50.942;4.028;2022-09-09T08:08:49;19.80;99.90
21244;DHT22;10780;50.942;4.028;2022-09-09T08:11:11;20.00;99.90
21244;DHT22;10780;50.942;4.028;2022-09-09T08:13:56;20.00;99.90
21244;DHT22;10780;50.942;4.028;2022-09-09T08:16:31;19.60;99.90
21244;DHT22;10780;50.942;4.028;2022-09-09T08:19:08;19.70;99.90
21244;DHT22;10780;50.942;4.028;2022-09-09T08:21:39;19.70;99.90
21244;DHT22;10780;50.942;4.028;2022-09-09T08:24:07;19.60;99.90
21244;DHT22;10780;50.942;4.028;2022-09-09T08:26:36;19.50;99.90
21244;DHT22;10780;50.942;4.028;2022-09-09T08:29:04;19.40;99.90
21244;DHT22;10780;50.942;4.028;2022-09-09T08:31:38;19.20;99.90
21244;DHT22;10780;50.942;4.028;2022-09-09T08:34:07;19.00;99.90
21244;DHT22;10780;50.942;4.028;2022-09-09T08:36:40;19.00;99.90
21244;DHT22;10780;50.942;4.028;2022-09-09T08:39:09;19.00;99.90
21244;DHT22;10780;50.942;4.028;2022-09-09T08:41:56;18.90;99.90
21244;DHT22;10780;50.942;4.028;2022-09-09T08:48:15;18.60;99.90
21244;DHT22;10780;50.942;4.028;2022-09-09T08:50:27;18.60;99.90
21244;DHT22;10780;50.942;4.028;2022-09-09T08:53:09;18.60;99.90
21244;DHT22;10780;50.942;4.028;2022-09-09T08:58:17;18.60;99.90
21244;DHT22;10780;50.942;4.028;2022-09-09T09:06:48;18.60;99.90
21244;DHT22;10780;50.942;4.028;2022-09-09T09:09:41;18.70;99.90
21244;DHT22;10780;50.942;4.028;2022-09-09T09:12:24;18.80;99.90
21244;DHT22;10780;50.942;4.028;2022-09-09T09:14:51;19.10;99.90
21244;DHT22;10780;50.942;4.028;2022-09-09T09:17:21;19.20;99.90
21244;DHT22;10780;50.942;4.028;2022-09-09T09:19:50;19.40;99.90
21244;DHT22;10780;50.942;4.028;2022-09-09T09:22:22;19.40;99.90
21244;DHT22;10780;50.942;4.028;2022-09-09T09:25:16;19.10;99.90
21244;DHT22;10780;50.942;4.028;2022-09-09T09:28:02;19.00;99.90
21244;DHT22;10780;50.942;4.028;2022-09-09T09:33:34;18.90;99.90
21244;DHT22;10780;50.942;4.028;2022-09-09T09:36:02;19.10;99.90
21244;DHT22;10780;50.942;4.028;2022-09-09T09:38:29;19.30;99.90
21244;DHT22;10780;50.942;4.028;2022-09-09T09:40:59;19.70;99.90
21244;DHT22;10780;50.942;4.028;2022-09-09T09:43:28;19.80;99.90
21244;DHT22;10780;50.942;4.028;2022-09-09T09:45:54;19.40;99.90
21244;DHT22;10780;50.942;4.028;2022-09-09T09:48:20;19.30;99.90
21244;DHT22;10780;50.942;4.028;2022-09-09T09:50:51;19.60;99.90
21244;DHT22;10780;50.942;4.028;2022-09-09T09:55:58;19.60;99.90
21244;DHT22;10780;50.942;4.028;2022-09-09T10:01:04;19.90;99.90
21244;DHT22;10780;50.942;4.028;2022-09-09T10:03:35;20.20;99.90
21244;DHT22;10780;50.942;4.028;2022-09-09T10:06:03;20.10;99.90
21244;DHT22;10780;50.942;4.028;2022-09-09T10:15:02;20.90;99.90
21244;DHT22;10780;50.942;4.028;2022-09-09T10:24:26;19.60;99.90
21244;DHT22;10780;50.942;4.028;2022-09-09T10:35:09;19.30;99.90
21244;DHT22;10780;50.942;4.028;2022-09-09T10:37:48;19.20;99.90
21244;DHT22;10780;50.942;4.028;2022-09-09T10:40:38;19.20;99.90
21244;DHT22;10780;50.942;4.028;2022-09-09T10:56:28;20.10;99.90
21244;DHT22;10780;50.942;4.028;2022-09-09T10:59:07;20.20;99.90
21244;DHT22;10780;50.942;4.028;2022-09-09T11:01:49;20.20;99.90
21244;DHT22;10780;50.942;4.028;2022-09-09T11:04:28;20.00;99.90
21244;DHT22;10780;50.942;4.028;2022-09-09T11:06:58;20.30;99.90
21244;DHT22;10780;50.942;4.028;2022-09-09T11:09:28;20.70;99.90
21244;DHT22;10780;50.942;4.028;2022-09-09T11:11:57;21.20;99.90
21244;DHT22;10780;50.942;4.028;2022-09-09T11:14:30;21.60;99.90
21244;DHT22;10780;50.942;4.028;2022-09-09T11:17:03;21.70;99.90
21244;DHT22;10780;50.942;4.028;2022-09-09T11:19:40;21.80;99.90
21244;DHT22;10780;50.942;4.028;2022-09-09T11:22:38;21.80;99.90
21244;DHT22;10780;50.942;4.028;2022-09-09T11:25:19;21.80;99.90
21244;DHT22;10780;50.942;4.028;2022-09-09T11:33:42;21.10;99.90
21244;DHT22;10780;50.942;4.028;2022-09-09T11:39:02;20.70;99.90
21244;DHT22;10780;50.942;4.028;2022-09-09T11:41:36;20.80;99.90
21244;DHT22;10780;50.942;4.028;2022-09-09T11:44:17;20.80;99.90
21244;DHT22;10780;50.942;4.028;2022-09-09T11:46:46;20.80;99.90
21244;DHT22;10780;50.942;4.028;2022-09-09T11:49:53;20.60;99.90
21244;DHT22;10780;50.942;4.028;2022-09-09T11:52:41;20.90;99.90
21244;DHT22;10780;50.942;4.028;2022-09-09T11:58:02;21.70;99.90
21244;DHT22;10780;50.942;4.028;2022-09-09T12:00:37;22.00;99.90
21244;DHT22;10780;50.942;4.028;2022-09-09T12:06:17;21.90;99.90
21244;DHT22;10780;50.942;4.028;2022-09-09T12:08:50;22.30;99.90
21244;DHT22;10780;50.942;4.028;2022-09-09T12:11:29;22.60;99.90
21244;DHT22;10780;50.942;4.028;2022-09-09T12:13:58;22.70;99.90
21244;DHT22;10780;50.942;4.028;2022-09-09T12:16:34;22.80;99.90
21244;DHT22;10780;50.942;4.028;2022-09-09T12:19:21;22.30;99.90
21244;DHT22;10780;50.942;4.028;2022-09-09T12:22:01;22.10;99.90
21244;DHT22;10780;50.942;4.028;2022-09-09T12:33:21;21.80;99.90
21244;DHT22;10780;50.942;4.028;2022-09-09T12:35:55;22.00;99.90
21244;DHT22;10780;50.942;4.028;2022-09-09T12:38:32;22.20;99.90
21244;DHT22;10780;50.942;4.028;2022-09-09T12:40:59;22.10;99.90
21244;DHT22;10780;50.942;4.028;2022-09-09T12:43:26;21.90;99.90
21244;DHT22;10780;50.942;4.028;2022-09-09T12:45:59;21.80;99.90
21244;DHT22;10780;50.942;4.028;2022-09-09T12:48:44;21.50;99.90
21244;DHT22;10780;50.942;4.028;2022-09-09T12:51:27;21.30;99.90
21244;DHT22;10780;50.942;4.028;2022-09-09T12:53:54;21.10;99.90
21244;DHT22;10780;50.942;4.028;2022-09-09T12:56:29;21.40;99.90
21244;DHT22;10780;50.942;4.028;2022-09-09T12:58:57;21.70;99.90
21244;DHT22;10780;50.942;4.028;2022-09-09T13:03:49;21.60;99.90
21244;DHT22;10780;50.942;4.028;2022-09-09T13:06:23;21.40;99.90
21244;DHT22;10780;50.942;4.028;2022-09-09T13:08:51;21.20;99.90
21244;DHT22;10780;50.942;4.028;2022-09-09T13:11:26;21.40;99.90
21244;DHT22;10780;50.942;4.028;2022-09-09T13:13:56;21.40;99.90
21244;DHT22;10780;50.942;4.028;2022-09-09T13:16:28;21.60;99.90
21244;DHT22;10780;50.942;4.028;2022-09-09T13:19:00;21.80;99.90
21244;DHT22;10780;50.942;4.028;2022-09-09T13:21:34;21.60;99.90
21244;DHT22;10780;50.942;4.028;2022-09-09T13:24:00;21.40;99.90
21244;DHT22;10780;50.942;4.028;2022-09-09T13:26:29;21.70;99.90
21244;DHT22;10780;50.942;4.028;2022-09-09T13:29:07;21.80;99.90
21244;DHT22;10780;50.942;4.028;2022-09-09T13:31:36;21.90;99.90
21244;DHT22;10780;50.942;4.028;2022-09-09T13:34:12;21.80;99.90
21244;DHT22;10780;50.942;4.028;2022-09-09T13:36:38;21.70;99.90
21244;DHT22;10780;50.942;4.028;2022-09-09T13:39:16;21.40;99.90
21244;DHT22;10780;50.942;4.028;2022-09-09T13:41:44;21.40;99.90
21244;DHT22;10780;50.942;4.028;2022-09-09T13:44:19;21.20;99.90
21244;DHT22;10780;50.942;4.028;2022-09-09T13:46:45;21.30;99.90
21244;DHT22;10780;50.942;4.028;2022-09-09T13:51:48;21.80;99.90
21244;DHT22;10780;50.942;4.028;2022-09-09T13:54:17;22.10;99.90
21244;DHT22;10780;50.942;4.028;2022-09-09T13:56:48;21.90;99.90
21244;DHT22;10780;50.942;4.028;2022-09-09T13:59:19;21.60;99.90
21244;DHT22;10780;50.942;4.028;2022-09-09T14:01:45;21.70;99.90
21244;DHT22;10780;50.942;4.028;2022-09-09T14:04:11;22.10;99.90
21244;DHT22;10780;50.942;4.028;2022-09-09T14:06:38;22.00;99.90
21244;DHT22;10780;50.942;4.028;2022-09-09T14:09:11;21.90;99.90
21244;DHT22;10780;50.942;4.028;2022-09-09T14:11:38;22.00;99.90
21244;DHT22;10780;50.942;4.028;2022-09-09T14:14:03;22.20;99.90
21244;DHT22;10780;50.942;4.028;2022-09-09T14:16:30;22.10;99.90
21244;DHT22;10780;50.942;4.028;2022-09-09T14:18:55;22.60;99.90
21244;DHT22;10780;50.942;4.028;2022-09-09T14:21:25;23.20;99.90
21244;DHT22;10780;50.942;4.028;2022-09-09T14:23:50;23.40;99.90
21244;DHT22;10780;50.942;4.028;2022-09-09T14:26:18;23.40;99.90
21244;DHT22;10780;50.942;4.028;2022-09-09T14:28:45;23.90;99.90
21244;DHT22;10780;50.942;4.028;2022-09-09T14:31:11;23.60;99.90
21244;DHT22;10780;50.942;4.028;2022-09-09T14:33:38;23.00;99.90
21244;DHT22;10780;50.942;4.028;2022-09-09T14:36:05;22.90;99.90
21244;DHT22;10780;50.942;4.028;2022-09-09T14:38:35;23.20;99.90
21244;DHT22;10780;50.942;4.028;2022-09-09T14:41:09;23.20;99.90
21244;DHT22;10780;50.942;4.028;2022-09-09T14:43:35;23.00;99.90
21244;DHT22;10780;50.942;4.028;2022-09-09T14:46:11;22.40;99.90
21244;DHT22;10780;50.942;4.028;2022-09-09T14:48:38;22.10;99.90
21244;DHT22;10780;50.942;4.028;2022-09-09T14:51:18;21.80;99.90
21244;DHT22;10780;50.942;4.028;2022-09-09T14:53:53;21.70;99.90
21244;DHT22;10780;50.942;4.028;2022-09-09T14:56:21;21.60;99.90
21244;DHT22;10780;50.942;4.028;2022-09-09T14:58:48;21.40;99.90
21244;DHT22;10780;50.942;4.028;2022-09-09T15:01:16;21.20;99.90
21244;DHT22;10780;50.942;4.028;2022-09-09T15:03:48;20.90;99.90
21244;DHT22;10780;50.942;4.028;2022-09-09T15:06:14;20.80;99.90
21244;DHT22;10780;50.942;4.028;2022-09-09T15:08:44;20.60;99.90
21244;DHT22;10780;50.942;4.028;2022-09-09T15:11:12;20.60;99.90
21244;DHT22;10780;50.942;4.028;2022-09-09T15:13:39;20.60;99.90
21244;DHT22;10780;50.942;4.028;2022-09-09T15:16:16;20.70;99.90
21244;DHT22;10780;50.942;4.028;2022-09-09T15:18:43;20.80;99.90
21244;DHT22;10780;50.942;4.028;2022-09-09T15:21:11;20.60;99.90
21244;DHT22;10780;50.942;4.028;2022-09-09T15:23:38;20.00;99.90
21244;DHT22;10780;50.942;4.028;2022-09-09T15:26:04;19.70;99.90
21244;DHT22;10780;50.942;4.028;2022-09-09T15:28:32;19.60;99.90
21244;DHT22;10780;50.942;4.028;2022-09-09T15:31:06;19.50;99.90
21244;DHT22;10780;50.942;4.028;2022-09-09T15:33:33;19.50;99.90
21244;DHT22;10780;50.942;4.028;2022-09-09T15:35:59;19.10;99.90
21244;DHT22;10780;50.942;4.028;2022-09-09T15:38:25;18.90;99.90
21244;DHT22;10780;50.942;4.028;2022-09-09T15:40:56;18.70;99.90
21244;DHT22;10780;50.942;4.028;2022-09-09T15:43:23;18.60;99.90
21244;DHT22;10780;50.942;4.028;2022-09-09T15:45:57;18.70;99.90
21244;DHT22;10780;50.942;4.028;2022-09-09T15:48:30;18.90;99.90
21244;DHT22;10780;50.942;4.028;2022-09-09T15:51:04;19.00;99.90
21244;DHT22;10780;50.942;4.028;2022-09-09T15:53:30;19.10;99.90
21244;DHT22;10780;50.942;4.028;2022-09-09T15:55:58;19.10;99.90
21244;DHT22;10780;50.942;4.028;2022-09-09T15:58:23;19.00;99.90
21244;DHT22;10780;50.942;4.028;2022-09-09T16:00:49;19.00;99.90
21244;DHT22;10780;50.942;4.028;2022-09-09T16:03:15;19.00;99.90
21244;DHT22;10780;50.942;4.028;2022-09-09T16:05:40;18.90;99.90
21244;DHT22;10780;50.942;4.028;2022-09-09T16:08:06;18.90;99.90
21244;DHT22;10780;50.942;4.028;2022-09-09T16:10:32;18.90;99.90
21244;DHT22;10780;50.942;4.028;2022-09-09T16:12:58;18.80;99.90
21244;DHT22;10780;50.942;4.028;2022-09-09T16:15:24;18.70;99.90
21244;DHT22;10780;50.942;4.028;2022-09-09T16:17:53;18.60;99.90
21244;DHT22;10780;50.942;4.028;2022-09-09T16:20:19;18.50;99.90
21244;DHT22;10780;50.942;4.028;2022-09-09T16:22:45;18.40;99.90
21244;DHT22;10780;50.942;4.028;2022-09-09T16:25:11;18.20;99.90
21244;DHT22;10780;50.942;4.028;2022-09-09T16:27:36;18.10;99.90
21244;DHT22;10780;50.942;4.028;2022-09-09T16:30:03;18.10;99.90
21244;DHT22;10780;50.942;4.028;2022-09-09T16:32:28;18.40;99.90
21244;DHT22;10780;50.942;4.028;2022-09-09T16:34:55;19.20;99.90
21244;DHT22;10780;50.942;4.028;2022-09-09T16:37:20;19.40;99.90
21244;DHT22;10780;50.942;4.028;2022-09-09T16:39:46;19.40;99.90
21244;DHT22;10780;50.942;4.028;2022-09-09T16:42:11;19.40;99.90
21244;DHT22;10780;50.942;4.028;2022-09-09T16:44:37;19.60;99.90
21244;DHT22;10780;50.942;4.028;2022-09-09T16:47:03;19.80;99.90
21244;DHT22;10780;50.942;4.028;2022-09-09T16:49:28;20.00;99.90
21244;DHT22;10780;50.942;4.028;2022-09-09T16:51:58;20.30;99.90
21244;DHT22;10780;50.942;4.028;2022-09-09T16:54:23;20.60;99.90
21244;DHT22;10780;50.942;4.028;2022-09-09T16:56:50;20.30;99.90
21244;DHT22;10780;50.942;4.028;2022-09-09T16:59:18;20.20;99.90
21244;DHT22;10780;50.942;4.028;2022-09-09T17:01:45;20.10;99.90
21244;DHT22;10780;50.942;4.028;2022-09-09T17:04:14;20.00;99.90
21244;DHT22;10780;50.942;4.028;2022-09-09T17:06:41;19.80;99.90
21244;DHT22;10780;50.942;4.028;2022-09-09T17:09:11;19.70;99.90
21244;DHT22;10780;50.942;4.028;2022-09-09T17:11:38;19.70;99.90
21244;DHT22;10780;50.942;4.028;2022-09-09T17:14:05;19.90;99.90
21244;DHT22;10780;50.942;4.028;2022-09-09T17:16:33;19.90;99.90
21244;DHT22;10780;50.942;4.028;2022-09-09T17:19:02;20.30;99.90
21244;DHT22;10780;50.942;4.028;2022-09-09T17:21:30;20.40;99.90
21244;DHT22;10780;50.942;4.028;2022-09-09T17:23:56;20.20;99.90
21244;DHT22;10780;50.942;4.028;2022-09-09T17:26:24;20.10;99.90
21244;DHT22;10780;50.942;4.028;2022-09-09T17:28:52;19.90;99.90
21244;DHT22;10780;50.942;4.028;2022-09-09T17:31:18;19.70;99.90
21244;DHT22;10780;50.942;4.028;2022-09-09T17:33:47;19.70;99.90
21244;DHT22;10780;50.942;4.028;2022-09-09T17:38:40;19.50;99.90
21244;DHT22;10780;50.942;4.028;2022-09-09T17:41:10;19.50;99.90
21244;DHT22;10780;50.942;4.028;2022-09-09T17:43:37;19.40;99.90
21244;DHT22;10780;50.942;4.028;2022-09-09T17:46:12;19.40;99.90
21244;DHT22;10780;50.942;4.028;2022-09-09T17:48:38;19.20;99.90
21244;DHT22;10780;50.942;4.028;2022-09-09T17:51:05;19.00;99.90